sensor_id;sensor_type;location;lat;lon;timestamp;pressure;altitude;pressure_sealevel;temperature;humidity
61394;BME280;48555;50.952;-0.120;2023-01-16T00:01:35;98309.78;;;8.48;83.14
61394;BME280;48555;50.952;-0.120;2023-01-16T00:04:01;98308.97;;;8.47;83.55
61394;BME280;48555;50.952;-0.120;2023-01-16T00:06:27;98291.31;;;8.41;83.75
61394;BME280;48555;50.952;-0.120;2023-01-16T00:08:52;98288.72;;;8.41;83.47
61394;BME280;48555;50.952;-0.120;2023-01-16T00:11:17;98272.47;;;8.39;84.29
61394;BME280;48555;50.952;-0.120;2023-01-16T00:13:43;98260.25;;;8.39;84.63
61394;BME280;48555;50.952;-0.120;2023-01-16T00:16:08;98253.84;;;8.34;85.11
61394;BME280;48555;50.952;-0.120;2023-01-16T00:18:34;98249.44;;;8.34;85.70
61394;BME280;48555;50.952;-0.120;2023-01-16T00:20:59;98232.34;;;8.32;85.35
61394;BME280;48555;50.952;-0.120;2023-01-16T00:23:25;98219.16;;;8.25;85.86
61394;BME280;48555;50.952;-0.120;2023-01-16T00:25:50;98200.75;;;8.18;85.02
61394;BME280;48555;50.952;-0.120;2023-01-16T00:28:15;98202.81;;;8.07;85.47
61394;BME280;48555;50.952;-0.120;2023-01-16T00:30:41;98196.28;;;8.03;86.96
61394;BME280;48555;50.952;-0.120;2023-01-16T00:33:08;98186.31;;;7.90;88.32
61394;BME280;48555;50.952;-0.120;2023-01-16T00:35:34;98179.56;;;7.79;89.91
61394;BME280;48555;50.952;-0.120;2023-01-16T00:37:59;98174.06;;;7.82;90.63
61394;BME280;48555;50.952;-0.120;2023-01-16T00:40:25;98160.09;;;7.83;90.55
61394;BME280;48555;50.952;-0.120;2023-01-16T00:42:50;98164.63;;;7.81;91.27
61394;BME280;48555;50.952;-0.120;2023-01-16T00:45:16;98158.75;;;7.71;91.43
61394;BME280;48555;50.952;-0.120;2023-01-16T00:47:42;98134.66;;;7.69;90.90
61394;BME280;48555;50.952;-0.120;2023-01-16T00:50:07;98128.28;;;7.63;90.48
61394;BME280;48555;50.952;-0.120;2023-01-16T00:52:33;98119.94;;;7.51;90.32
61394;BME280;48555;50.952;-0.120;2023-01-16T00:54:59;98115.09;;;7.57;89.58
61394;BME280;48555;50.952;-0.120;2023-01-16T00:57:24;98101.38;;;7.46;89.25
61394;BME280;48555;50.952;-0.120;2023-01-16T00:59:49;98089.88;;;7.49;89.25
61394;BME280;48555;50.952;-0.120;2023-01-16T01:02:15;98091.34;;;7.51;88.83
61394;BME280;48555;50.952;-0.120;2023-01-16T01:04:40;98071.53;;;7.50;88.38
61394;BME280;48555;50.952;-0.120;2023-01-16T01:07:06;98061.50;;;7.30;88.71
61394;BME280;48555;50.952;-0.120;2023-01-16T01:09:31;98049.41;;;7.20;88.61
61394;BME280;48555;50.952;-0.120;2023-01-16T01:11:57;98050.56;;;7.18;88.05
61394;BME280;48555;50.952;-0.120;2023-01-16T01:14:23;98053.16;;;7.18;87.76
61394;BME280;48555;50.952;-0.120;2023-01-16T01:16:49;98045.75;;;7.05;86.14
61394;BME280;48555;50.952;-0.120;2023-01-16T01:19:15;98024.22;;;6.87;85.50
61394;BME280;48555;50.952;-0.120;2023-01-16T01:21:40;98019.84;;;6.61;84.95
61394;BME280;48555;50.952;-0.120;2023-01-16T01:24:06;97997.47;;;6.42;84.57
61394;BME280;48555;50.952;-0.120;2023-01-16T01:26:31;97989.91;;;6.31;85.01
61394;BME280;48555;50.952;-0.120;2023-01-16T01:28:57;97984.28;;;6.18;85.26
61394;BME280;48555;50.952;-0.120;2023-01-16T01:31:22;97970.72;;;6.06;85.60
61394;BME280;48555;50.952;-0.120;2023-01-16T01:33:48;97953.78;;;5.94;86.26
61394;BME280;48555;50.952;-0.120;2023-01-16T01:36:13;97942.78;;;5.82;86.76
61394;BME280;48555;50.952;-0.120;2023-01-16T01:38:38;97931.69;;;5.72;87.41
61394;BME280;48555;50.952;-0.120;2023-01-16T01:41:04;97920.31;;;5.73;87.99
61394;BME280;48555;50.952;-0.120;2023-01-16T01:43:49;97902.94;;;5.65;88.55
61394;BME280;48555;50.952;-0.120;2023-01-16T01:46:38;97885.97;;;5.53;89.56
61394;BME280;48555;50.952;-0.120;2023-01-16T01:49:27;97879.97;;;5.52;90.08
61394;BME280;48555;50.952;-0.120;2023-01-16T01:51:56;97867.31;;;5.49;90.84
61394;BME280;48555;50.952;-0.120;2023-01-16T01:54:28;97854.84;;;5.53;91.00
61394;BME280;48555;50.952;-0.120;2023-01-16T01:56:58;97842.06;;;5.51;91.39
61394;BME280;48555;50.952;-0.120;2023-01-16T01:59:28;97835.16;;;5.60;91.65
61394;BME280;48555;50.952;-0.120;2023-01-16T02:01:55;97813.56;;;5.51;92.15
61394;BME280;48555;50.952;-0.120;2023-01-16T02:04:27;97806.28;;;5.55;92.41
61394;BME280;48555;50.952;-0.120;2023-01-16T02:06:57;97794.91;;;5.47;93.04
61394;BME280;48555;50.952;-0.120;2023-01-16T02:09:25;97782.97;;;5.55;93.05
61394;BME280;48555;50.952;-0.120;2023-01-16T02:11:56;97771.03;;;5.44;94.08
61394;BME280;48555;50.952;-0.120;2023-01-16T02:14:23;97768.69;;;5.51;93.91
61394;BME280;48555;50.952;-0.120;2023-01-16T02:17:01;97759.88;;;5.43;94.49
61394;BME280;48555;50.952;-0.120;2023-01-16T02:29:09;97684.31;;;5.30;96.34
61394;BME280;48555;50.952;-0.120;2023-01-16T02:32:10;97685.78;;;5.33;96.97
61394;BME280;48555;50.952;-0.120;2023-01-16T02:37:39;97658.34;;;5.48;96.58
61394;BME280;48555;50.952;-0.120;2023-01-16T02:43:01;97634.06;;;5.49;96.78
61394;BME280;48555;50.952;-0.120;2023-01-16T02:45:40;97622.75;;;5.50;96.86
61394;BME280;48555;50.952;-0.120;2023-01-16T02:50:54;97590.16;;;5.47;96.90
61394;BME280;48555;50.952;-0.120;2023-01-16T02:53:28;97560.94;;;5.37;97.02
61394;BME280;48555;50.952;-0.120;2023-01-16T02:55:57;97571.38;;;5.45;97.22
61394;BME280;48555;50.952;-0.120;2023-01-16T02:58:29;97559.69;;;5.41;97.60
61394;BME280;48555;50.952;-0.120;2023-01-16T03:00:58;97550.66;;;5.54;97.55
61394;BME280;48555;50.952;-0.120;2023-01-16T03:06:44;97525.66;;;5.36;98.06
61394;BME280;48555;50.952;-0.120;2023-01-16T03:12:21;97513.97;;;5.32;96.77
61394;BME280;48555;50.952;-0.120;2023-01-16T03:15:10;97504.88;;;4.94;98.13
61394;BME280;48555;50.952;-0.120;2023-01-16T03:17:45;97491.66;;;5.05;98.22
61394;BME280;48555;50.952;-0.120;2023-01-16T03:26:04;97459.91;;;4.95;97.92
61394;BME280;48555;50.952;-0.120;2023-01-16T03:28:46;97453.88;;;4.86;98.24
61394;BME280;48555;50.952;-0.120;2023-01-16T03:39:20;97422.69;;;4.62;97.60
61394;BME280;48555;50.952;-0.120;2023-01-16T03:41:47;97411.56;;;4.69;97.12
61394;BME280;48555;50.952;-0.120;2023-01-16T03:44:27;97407.88;;;4.72;96.75
61394;BME280;48555;50.952;-0.120;2023-01-16T03:46:55;97401.19;;;4.61;96.52
61394;BME280;48555;50.952;-0.120;2023-01-16T03:49:27;97391.56;;;4.19;97.63
61394;BME280;48555;50.952;-0.120;2023-01-16T03:51:58;97387.13;;;4.29;97.14
61394;BME280;48555;50.952;-0.120;2023-01-16T03:54:35;97384.97;;;4.25;97.33
61394;BME280;48555;50.952;-0.120;2023-01-16T03:57:10;97377.69;;;3.94;98.44
61394;BME280;48555;50.952;-0.120;2023-01-16T03:59:38;97365.59;;;3.77;97.46
61394;BME280;48555;50.952;-0.120;2023-01-16T04:02:26;97364.97;;;3.83;96.73
61394;BME280;48555;50.952;-0.120;2023-01-16T04:05:25;97375.94;;;3.77;96.59
61394;BME280;48555;50.952;-0.120;2023-01-16T04:08:02;97373.50;;;3.57;96.98
61394;BME280;48555;50.952;-0.120;2023-01-16T04:10:32;97364.78;;;3.40;97.96
61394;BME280;48555;50.952;-0.120;2023-01-16T04:13:12;97370.63;;;3.42;97.14
61394;BME280;48555;50.952;-0.120;2023-01-16T04:15:43;97374.09;;;3.33;97.70
61394;BME280;48555;50.952;-0.120;2023-01-16T04:18:09;97361.97;;;3.52;97.02
61394;BME280;48555;50.952;-0.120;2023-01-16T04:20:35;97359.53;;;3.68;96.30
61394;BME280;48555;50.952;-0.120;2023-01-16T04:23:02;97348.34;;;3.41;97.04
61394;BME280;48555;50.952;-0.120;2023-01-16T04:25:27;97353.13;;;3.54;96.94
61394;BME280;48555;50.952;-0.120;2023-01-16T04:27:53;97347.47;;;3.33;97.72
61394;BME280;48555;50.952;-0.120;2023-01-16T04:30:18;97345.81;;;3.32;98.30
61394;BME280;48555;50.952;-0.120;2023-01-16T04:32:43;97343.19;;;3.24;98.95
61394;BME280;48555;50.952;-0.120;2023-01-16T04:35:09;97337.63;;;3.36;98.75
61394;BME280;48555;50.952;-0.120;2023-01-16T04:37:35;97338.88;;;3.14;99.78
61394;BME280;48555;50.952;-0.120;2023-01-16T04:40:00;97331.91;;;2.97;100.00
61394;BME280;48555;50.952;-0.120;2023-01-16T04:42:26;97322.28;;;3.17;100.00
61394;BME280;48555;50.952;-0.120;2023-01-16T04:44:51;97335.84;;;3.19;100.00
61394;BME280;48555;50.952;-0.120;2023-01-16T04:47:17;97334.91;;;3.20;100.00
61394;BME280;48555;50.952;-0.120;2023-01-16T04:49:42;97328.03;;;3.11;100.00
61394;BME280;48555;50.952;-0.120;2023-01-16T04:52:09;97336.75;;;3.10;100.00
61394;BME280;48555;50.952;-0.120;2023-01-16T04:54:35;97333.28;;;3.01;100.00
61394;BME280;48555;50.952;-0.120;2023-01-16T04:57:01;97327.28;;;2.83;100.00
61394;BME280;48555;50.952;-0.120;2023-01-16T04:59:27;97342.38;;;2.78;100.00
61394;BME280;48555;50.952;-0.120;2023-01-16T05:01:52;97334.97;;;2.65;100.00
61394;BME280;48555;50.952;-0.120;2023-01-16T05:04:17;97341.41;;;2.79;100.00
61394;BME280;48555;50.952;-0.120;2023-01-16T05:06:43;97347.25;;;2.81;100.00
61394;BME280;48555;50.952;-0.120;2023-01-16T05:09:08;97339.25;;;3.02;100.00
61394;BME280;48555;50.952;-0.120;2023-01-16T05:11:34;97353.66;;;2.77;100.00
61394;BME280;48555;50.952;-0.120;2023-01-16T05:14:00;97354.47;;;2.77;100.00
61394;BME280;48555;50.952;-0.120;2023-01-16T05:16:26;97357.56;;;2.81;100.00
61394;BME280;48555;50.952;-0.120;2023-01-16T05:18:51;97358.94;;;2.75;100.00
61394;BME280;48555;50.952;-0.120;2023-01-16T05:21:17;97358.94;;;2.75;100.00
61394;BME280;48555;50.952;-0.120;2023-01-16T05:23:42;97364.00;;;2.67;100.00
61394;BME280;48555;50.952;-0.120;2023-01-16T05:26:08;97357.06;;;2.67;100.00
61394;BME280;48555;50.952;-0.120;2023-01-16T05:28:34;97359.81;;;2.66;100.00
61394;BME280;48555;50.952;-0.120;2023-01-16T05:31:00;97368.31;;;2.76;100.00
61394;BME280;48555;50.952;-0.120;2023-01-16T05:33:26;97368.06;;;2.69;100.00
61394;BME280;48555;50.952;-0.120;2023-01-16T05:35:51;97372.41;;;2.69;100.00
61394;BME280;48555;50.952;-0.120;2023-01-16T05:38:19;97375.72;;;2.61;100.00
61394;BME280;48555;50.952;-0.120;2023-01-16T05:40:44;97376.53;;;2.62;100.00
61394;BME280;48555;50.952;-0.120;2023-01-16T05:43:09;97384.84;;;2.83;100.00
61394;BME280;48555;50.952;-0.120;2023-01-16T05:45:35;97389.38;;;2.71;100.00
61394;BME280;48555;50.952;-0.120;2023-01-16T05:48:01;97386.06;;;2.79;100.00
61394;BME280;48555;50.952;-0.120;2023-01-16T05:50:27;97401.59;;;2.69;100.00
61394;BME280;48555;50.952;-0.120;2023-01-16T05:52:52;97397.25;;;2.70;100.00
61394;BME280;48555;50.952;-0.120;2023-01-16T05:55:17;97402.91;;;2.83;100.00
61394;BME280;48555;50.952;-0.120;2023-01-16T05:57:43;97421.31;;;2.61;100.00
61394;BME280;48555;50.952;-0.120;2023-01-16T06:00:09;97412.09;;;2.68;100.00
61394;BME280;48555;50.952;-0.120;2023-01-16T06:02:35;97426.78;;;2.58;100.00
61394;BME280;48555;50.952;-0.120;2023-01-16T06:05:01;97431.94;;;2.58;100.00
61394;BME280;48555;50.952;-0.120;2023-01-16T06:07:26;97421.78;;;2.46;100.00
61394;BME280;48555;50.952;-0.120;2023-01-16T06:09:51;97434.66;;;2.56;100.00
61394;BME280;48555;50.952;-0.120;2023-01-16T06:12:18;97441.13;;;2.70;100.00
61394;BME280;48555;50.952;-0.120;2023-01-16T06:14:44;97451.19;;;2.63;100.00
61394;BME280;48555;50.952;-0.120;2023-01-16T06:17:10;97449.31;;;2.56;100.00
61394;BME280;48555;50.952;-0.120;2023-01-16T06:19:36;97451.88;;;2.56;100.00
61394;BME280;48555;50.952;-0.120;2023-01-16T06:22:01;97460.19;;;2.49;100.00
61394;BME280;48555;50.952;-0.120;2023-01-16T06:24:27;97461.53;;;2.54;100.00
61394;BME280;48555;50.952;-0.120;2023-01-16T06:26:52;97465.91;;;2.53;100.00
61394;BME280;48555;50.952;-0.120;2023-01-16T06:29:17;97467.72;;;2.70;100.00
61394;BME280;48555;50.952;-0.120;2023-01-16T06:31:43;97471.78;;;2.83;100.00
61394;BME280;48555;50.952;-0.120;2023-01-16T06:34:08;97482.03;;;2.65;100.00
61394;BME280;48555;50.952;-0.120;2023-01-16T06:36:34;97476.31;;;2.61;100.00
61394;BME280;48555;50.952;-0.120;2023-01-16T06:38:59;97489.84;;;2.83;100.00
61394;BME280;48555;50.952;-0.120;2023-01-16T06:41:24;97489.47;;;3.05;100.00
61394;BME280;48555;50.952;-0.120;2023-01-16T06:43:50;97486.53;;;2.90;100.00
61394;BME280;48555;50.952;-0.120;2023-01-16T06:46:15;97502.59;;;3.22;100.00
61394;BME280;48555;50.952;-0.120;2023-01-16T06:48:40;97511.19;;;3.12;100.00
61394;BME280;48555;50.952;-0.120;2023-01-16T06:51:09;97502.91;;;3.09;100.00
61394;BME280;48555;50.952;-0.120;2023-01-16T06:53:35;97516.47;;;3.11;100.00
61394;BME280;48555;50.952;-0.120;2023-01-16T06:56:00;97522.09;;;3.34;100.00
61394;BME280;48555;50.952;-0.120;2023-01-16T06:58:26;97526.69;;;3.40;100.00
61394;BME280;48555;50.952;-0.120;2023-01-16T07:00:51;97533.63;;;3.39;100.00
61394;BME280;48555;50.952;-0.120;2023-01-16T07:03:18;97538.69;;;3.31;100.00
61394;BME280;48555;50.952;-0.120;2023-01-16T07:05:44;97542.22;;;3.30;100.00
61394;BME280;48555;50.952;-0.120;2023-01-16T07:08:10;97552.41;;;3.32;100.00
61394;BME280;48555;50.952;-0.120;2023-01-16T07:10:36;97550.78;;;3.31;100.00
61394;BME280;48555;50.952;-0.120;2023-01-16T07:13:02;97561.34;;;3.10;100.00
61394;BME280;48555;50.952;-0.120;2023-01-16T07:15:27;97562.16;;;3.10;100.00
61394;BME280;48555;50.952;-0.120;2023-01-16T07:18:15;97567.09;;;3.31;100.00
61394;BME280;48555;50.952;-0.120;2023-01-16T07:21:02;97566.63;;;3.18;100.00
61394;BME280;48555;50.952;-0.120;2023-01-16T07:23:53;97578.09;;;3.33;100.00
61394;BME280;48555;50.952;-0.120;2023-01-16T07:26:20;97563.75;;;3.21;100.00
61394;BME280;48555;50.952;-0.120;2023-01-16T07:28:48;97582.63;;;3.22;100.00
61394;BME280;48555;50.952;-0.120;2023-01-16T07:31:15;97580.56;;;3.25;100.00
61394;BME280;48555;50.952;-0.120;2023-01-16T07:33:41;97590.94;;;3.15;100.00
61394;BME280;48555;50.952;-0.120;2023-01-16T07:36:06;97593.84;;;3.40;100.00
61394;BME280;48555;50.952;-0.120;2023-01-16T07:38:31;97587.13;;;3.57;100.00
61394;BME280;48555;50.952;-0.120;2023-01-16T07:40:57;97599.94;;;3.49;100.00
61394;BME280;48555;50.952;-0.120;2023-01-16T07:43:22;97600.66;;;3.31;100.00
61394;BME280;48555;50.952;-0.120;2023-01-16T07:45:47;97596.06;;;3.25;100.00
61394;BME280;48555;50.952;-0.120;2023-01-16T07:48:21;97604.56;;;3.45;100.00
61394;BME280;48555;50.952;-0.120;2023-01-16T07:50:51;97614.16;;;3.62;100.00
61394;BME280;48555;50.952;-0.120;2023-01-16T07:53:17;97612.66;;;3.87;100.00
61394;BME280;48555;50.952;-0.120;2023-01-16T07:55:46;97606.25;;;3.92;100.00
61394;BME280;48555;50.952;-0.120;2023-01-16T07:58:12;97620.66;;;3.94;100.00
61394;BME280;48555;50.952;-0.120;2023-01-16T08:00:37;97620.53;;;4.14;100.00
61394;BME280;48555;50.952;-0.120;2023-01-16T08:03:02;97629.66;;;4.18;100.00
61394;BME280;48555;50.952;-0.120;2023-01-16T08:05:28;97636.88;;;4.32;100.00
61394;BME280;48555;50.952;-0.120;2023-01-16T08:07:53;97643.84;;;4.49;100.00
61394;BME280;48555;50.952;-0.120;2023-01-16T08:10:20;97647.78;;;4.53;100.00
61394;BME280;48555;50.952;-0.120;2023-01-16T08:12:45;97654.88;;;4.69;100.00
61394;BME280;48555;50.952;-0.120;2023-01-16T08:15:10;97663.31;;;4.71;100.00
61394;BME280;48555;50.952;-0.120;2023-01-16T08:17:38;97672.00;;;4.70;100.00
61394;BME280;48555;50.952;-0.120;2023-01-16T08:20:04;97675.88;;;4.66;100.00
61394;BME280;48555;50.952;-0.120;2023-01-16T08:22:30;97678.81;;;4.53;100.00
61394;BME280;48555;50.952;-0.120;2023-01-16T08:24:55;97696.09;;;4.35;100.00
61394;BME280;48555;50.952;-0.120;2023-01-16T08:27:20;97689.22;;;4.62;100.00
61394;BME280;48555;50.952;-0.120;2023-01-16T08:29:46;97702.94;;;4.72;100.00
61394;BME280;48555;50.952;-0.120;2023-01-16T08:32:11;97716.69;;;4.90;100.00
61394;BME280;48555;50.952;-0.120;2023-01-16T08:34:36;97723.56;;;4.99;99.47
61394;BME280;48555;50.952;-0.120;2023-01-16T08:37:02;97733.19;;;4.71;99.93
61394;BME280;48555;50.952;-0.120;2023-01-16T08:39:29;97737.09;;;4.75;100.00
61394;BME280;48555;50.952;-0.120;2023-01-16T08:41:54;97745.09;;;4.82;100.00
61394;BME280;48555;50.952;-0.120;2023-01-16T08:44:38;97750.13;;;4.84;99.19
61394;BME280;48555;50.952;-0.120;2023-01-16T08:47:23;97749.97;;;4.85;98.77
61394;BME280;48555;50.952;-0.120;2023-01-16T08:52:58;97766.47;;;5.02;97.41
61394;BME280;48555;50.952;-0.120;2023-01-16T08:55:24;97757.38;;;4.98;97.37
61394;BME280;48555;50.952;-0.120;2023-01-16T08:57:49;97765.00;;;5.17;96.35
61394;BME280;48555;50.952;-0.120;2023-01-16T09:00:15;97780.47;;;5.27;95.56
61394;BME280;48555;50.952;-0.120;2023-01-16T09:02:40;97778.91;;;5.16;95.25
61394;BME280;48555;50.952;-0.120;2023-01-16T09:05:06;97787.06;;;5.04;96.11
61394;BME280;48555;50.952;-0.120;2023-01-16T09:07:32;97797.50;;;5.12;95.10
61394;BME280;48555;50.952;-0.120;2023-01-16T09:09:57;97797.13;;;5.42;94.43
61394;BME280;48555;50.952;-0.120;2023-01-16T09:12:23;97803.72;;;5.19;94.05
61394;BME280;48555;50.952;-0.120;2023-01-16T09:15:07;97807.63;;;5.05;94.21
61394;BME280;48555;50.952;-0.120;2023-01-16T09:17:32;97812.06;;;5.13;94.45
61394;BME280;48555;50.952;-0.120;2023-01-16T09:19:58;97819.38;;;5.17;93.47
61394;BME280;48555;50.952;-0.120;2023-01-16T09:22:26;97835.22;;;5.32;93.18
61394;BME280;48555;50.952;-0.120;2023-01-16T09:24:52;97849.25;;;5.21;92.27
61394;BME280;48555;50.952;-0.120;2023-01-16T09:27:17;97832.63;;;5.14;92.32
61394;BME280;48555;50.952;-0.120;2023-01-16T09:29:44;97850.50;;;5.53;91.47
61394;BME280;48555;50.952;-0.120;2023-01-16T09:32:09;97856.25;;;5.29;91.26
61394;BME280;48555;50.952;-0.120;2023-01-16T09:34:36;97864.63;;;5.41;91.10
61394;BME280;48555;50.952;-0.120;2023-01-16T09:37:02;97865.81;;;5.46;90.63
61394;BME280;48555;50.952;-0.120;2023-01-16T09:39:28;97872.56;;;5.57;89.51
61394;BME280;48555;50.952;-0.120;2023-01-16T09:41:57;97875.97;;;5.58;89.28
61394;BME280;48555;50.952;-0.120;2023-01-16T09:44:48;97888.63;;;5.79;88.80
61394;BME280;48555;50.952;-0.120;2023-01-16T09:47:16;97897.59;;;5.66;88.37
61394;BME280;48555;50.952;-0.120;2023-01-16T09:49:48;97898.09;;;5.70;88.30
61394;BME280;48555;50.952;-0.120;2023-01-16T09:52:19;97908.78;;;5.67;88.95
61394;BME280;48555;50.952;-0.120;2023-01-16T09:58:13;97911.34;;;5.85;88.28
61394;BME280;48555;50.952;-0.120;2023-01-16T10:00:59;97925.59;;;5.81;88.08
61394;BME280;48555;50.952;-0.120;2023-01-16T10:03:25;97932.06;;;5.95;88.04
61394;BME280;48555;50.952;-0.120;2023-01-16T10:06:00;97934.38;;;5.98;87.46
61394;BME280;48555;50.952;-0.120;2023-01-16T10:12:04;97943.78;;;5.99;87.28
61394;BME280;48555;50.952;-0.120;2023-01-16T10:14:51;97939.06;;;5.84;86.73
61394;BME280;48555;50.952;-0.120;2023-01-16T10:17:44;97946.84;;;5.84;86.68
61394;BME280;48555;50.952;-0.120;2023-01-16T10:20:24;97949.66;;;5.55;87.65
61394;BME280;48555;50.952;-0.120;2023-01-16T10:23:30;97956.59;;;5.37;88.13
61394;BME280;48555;50.952;-0.120;2023-01-16T10:26:08;97965.47;;;5.62;87.32
61394;BME280;48555;50.952;-0.120;2023-01-16T10:31:37;97981.88;;;5.98;85.82
61394;BME280;48555;50.952;-0.120;2023-01-16T10:34:23;97990.91;;;6.12;85.48
61394;BME280;48555;50.952;-0.120;2023-01-16T10:36:53;97987.78;;;6.08;85.20
61394;BME280;48555;50.952;-0.120;2023-01-16T10:39:21;97965.38;;;5.72;84.81
61394;BME280;48555;50.952;-0.120;2023-01-16T10:41:48;98003.59;;;5.69;85.61
61394;BME280;48555;50.952;-0.120;2023-01-16T10:47:21;98007.09;;;5.78;85.48
61394;BME280;48555;50.952;-0.120;2023-01-16T10:50:07;98005.22;;;5.70;86.16
61394;BME280;48555;50.952;-0.120;2023-01-16T10:52:33;98003.22;;;5.82;85.71
61394;BME280;48555;50.952;-0.120;2023-01-16T10:55:00;98009.19;;;5.92;84.90
61394;BME280;48555;50.952;-0.120;2023-01-16T10:57:26;98023.72;;;5.85;85.43
61394;BME280;48555;50.952;-0.120;2023-01-16T11:00:21;98014.38;;;5.92;85.72
61394;BME280;48555;50.952;-0.120;2023-01-16T11:02:57;98025.03;;;5.89;85.12
61394;BME280;48555;50.952;-0.120;2023-01-16T11:05:31;98032.53;;;5.92;85.28
61394;BME280;48555;50.952;-0.120;2023-01-16T11:08:10;98029.88;;;6.02;84.96
61394;BME280;48555;50.952;-0.120;2023-01-16T11:10:38;98029.84;;;6.12;84.48
61394;BME280;48555;50.952;-0.120;2023-01-16T11:13:04;98029.59;;;6.05;84.18
61394;BME280;48555;50.952;-0.120;2023-01-16T11:16:08;98042.94;;;6.10;84.15
61394;BME280;48555;50.952;-0.120;2023-01-16T11:19:16;98040.56;;;6.17;83.88
61394;BME280;48555;50.952;-0.120;2023-01-16T11:21:48;98048.28;;;6.27;83.59
61394;BME280;48555;50.952;-0.120;2023-01-16T11:24:17;98043.31;;;6.33;83.32
61394;BME280;48555;50.952;-0.120;2023-01-16T11:26:48;98048.19;;;6.36;83.07
61394;BME280;48555;50.952;-0.120;2023-01-16T11:29:18;98046.59;;;6.35;82.82
61394;BME280;48555;50.952;-0.120;2023-01-16T11:31:56;98058.13;;;6.23;83.06
61394;BME280;48555;50.952;-0.120;2023-01-16T11:34:24;98046.41;;;6.37;82.43
61394;BME280;48555;50.952;-0.120;2023-01-16T11:36:56;98046.94;;;6.41;82.22
61394;BME280;48555;50.952;-0.120;2023-01-16T11:39:25;98052.50;;;6.46;82.41
61394;BME280;48555;50.952;-0.120;2023-01-16T11:41:56;98056.56;;;6.48;81.90
61394;BME280;48555;50.952;-0.120;2023-01-16T11:44:33;98070.44;;;6.57;81.01
61394;BME280;48555;50.952;-0.120;2023-01-16T11:47:22;98077.56;;;6.55;80.61
61394;BME280;48555;50.952;-0.120;2023-01-16T11:49:50;98066.16;;;6.48;80.41
61394;BME280;48555;50.952;-0.120;2023-01-16T11:52:17;98068.28;;;6.52;80.44
61394;BME280;48555;50.952;-0.120;2023-01-16T11:55:00;98067.63;;;6.68;80.38
61394;BME280;48555;50.952;-0.120;2023-01-16T11:57:58;98078.22;;;6.75;80.64
61394;BME280;48555;50.952;-0.120;2023-01-16T12:00:43;98090.59;;;6.81;79.59
61394;BME280;48555;50.952;-0.120;2023-01-16T12:17:19;98105.72;;;6.32;78.21
61394;BME280;48555;50.952;-0.120;2023-01-16T12:25:53;98103.97;;;6.32;78.02
61394;BME280;48555;50.952;-0.120;2023-01-16T12:39:57;98110.38;;;6.82;77.49
61394;BME280;48555;50.952;-0.120;2023-01-16T12:50:55;98111.22;;;6.82;76.58
61394;BME280;48555;50.952;-0.120;2023-01-16T12:59:30;98123.34;;;7.00;76.70
61394;BME280;48555;50.952;-0.120;2023-01-16T13:02:21;98110.94;;;7.12;76.44
61394;BME280;48555;50.952;-0.120;2023-01-16T13:04:58;98108.94;;;7.05;75.86
61394;BME280;48555;50.952;-0.120;2023-01-16T13:07:25;98121.50;;;7.10;76.58
61394;BME280;48555;50.952;-0.120;2023-01-16T13:12:56;98130.69;;;7.04;75.71
61394;BME280;48555;50.952;-0.120;2023-01-16T13:15:43;98124.78;;;6.94;75.23
61394;BME280;48555;50.952;-0.120;2023-01-16T13:18:18;98107.81;;;7.08;75.83
61394;BME280;48555;50.952;-0.120;2023-01-16T13:20:52;98121.88;;;7.23;75.28
61394;BME280;48555;50.952;-0.120;2023-01-16T13:23:25;98126.13;;;7.24;75.50
61394;BME280;48555;50.952;-0.120;2023-01-16T13:26:03;98118.59;;;7.39;75.28
61394;BME280;48555;50.952;-0.120;2023-01-16T13:28:37;98119.09;;;7.43;75.34
61394;BME280;48555;50.952;-0.120;2023-01-16T13:31:13;98125.31;;;7.50;75.14
61394;BME280;48555;50.952;-0.120;2023-01-16T13:33:44;98131.00;;;7.54;75.40
61394;BME280;48555;50.952;-0.120;2023-01-16T13:39:23;98126.63;;;7.54;75.55
61394;BME280;48555;50.952;-0.120;2023-01-16T13:41:55;98146.75;;;7.52;75.18
61394;BME280;48555;50.952;-0.120;2023-01-16T13:44:25;98132.28;;;7.49;75.08
61394;BME280;48555;50.952;-0.120;2023-01-16T13:47:16;98142.69;;;7.49;75.48
61394;BME280;48555;50.952;-0.120;2023-01-16T13:49:49;98138.47;;;7.48;76.05
61394;BME280;48555;50.952;-0.120;2023-01-16T13:52:20;98146.13;;;7.58;75.13
61394;BME280;48555;50.952;-0.120;2023-01-16T13:54:48;98131.00;;;7.54;74.07
61394;BME280;48555;50.952;-0.120;2023-01-16T13:57:17;98141.75;;;7.59;74.31
61394;BME280;48555;50.952;-0.120;2023-01-16T13:59:51;98146.69;;;7.70;74.44
61394;BME280;48555;50.952;-0.120;2023-01-16T14:05:14;98146.34;;;7.65;72.55
61394;BME280;48555;50.952;-0.120;2023-01-16T14:10:44;98147.47;;;7.62;72.22
61394;BME280;48555;50.952;-0.120;2023-01-16T14:15:58;98158.19;;;7.59;71.50
61394;BME280;48555;50.952;-0.120;2023-01-16T14:21:42;98160.97;;;7.66;71.00
61394;BME280;48555;50.952;-0.120;2023-01-16T14:24:26;98162.78;;;7.65;71.04
61394;BME280;48555;50.952;-0.120;2023-01-16T14:26:56;98171.84;;;7.61;71.16
61394;BME280;48555;50.952;-0.120;2023-01-16T14:29:27;98160.38;;;7.46;70.07
61394;BME280;48555;50.952;-0.120;2023-01-16T14:32:04;98172.69;;;7.36;70.27
61394;BME280;48555;50.952;-0.120;2023-01-16T14:34:37;98182.19;;;7.27;70.09
61394;BME280;48555;50.952;-0.120;2023-01-16T14:37:32;98170.69;;;7.12;69.07
61394;BME280;48555;50.952;-0.120;2023-01-16T14:45:33;98179.69;;;6.99;70.36
61394;BME280;48555;50.952;-0.120;2023-01-16T14:56:43;98189.66;;;7.04;70.41
61394;BME280;48555;50.952;-0.120;2023-01-16T14:59:25;98195.66;;;7.04;70.32
61394;BME280;48555;50.952;-0.120;2023-01-16T15:02:19;98198.16;;;7.14;70.19
61394;BME280;48555;50.952;-0.120;2023-01-16T15:04:58;98196.63;;;7.03;69.89
61394;BME280;48555;50.952;-0.120;2023-01-16T15:07:40;98201.22;;;7.10;69.79
61394;BME280;48555;50.952;-0.120;2023-01-16T15:10:16;98208.81;;;7.21;69.15
61394;BME280;48555;50.952;-0.120;2023-01-16T15:12:44;98213.91;;;7.31;68.96
61394;BME280;48555;50.952;-0.120;2023-01-16T15:15:20;98214.41;;;7.34;69.11
61394;BME280;48555;50.952;-0.120;2023-01-16T15:17:49;98208.63;;;7.22;68.01
61394;BME280;48555;50.952;-0.120;2023-01-16T15:20:35;98225.25;;;7.12;68.04
61394;BME280;48555;50.952;-0.120;2023-01-16T15:23:25;98226.53;;;6.90;66.38
61394;BME280;48555;50.952;-0.120;2023-01-16T15:31:01;98235.97;;;6.91;65.82
61394;BME280;48555;50.952;-0.120;2023-01-16T15:33:32;98223.47;;;6.76;64.49